Time;durP1;ratioP1;P1;durP2;ratioP2;P2;SDS_P1;SDS_P2;PMS_P1;PMS_P2;Temp;Humidity;BMP_temperature;BMP_pressure;BME280_temperature;BME280_humidity;BME280_pressure;Samples;Min_cycle;Max_cycle;Signal;HPM_P1;HPM_P2
2023/03/08 00:01:15;;;;;;;1.17;1.15;;;;;;;-9.43;100.00;98128.50;4971033;28;20055;-76
2023/03/08 00:03:42;;;;;;;1.00;1.00;;;;;;;-9.42;100.00;98132.75;4971682;28;20101;-77
2023/03/08 00:06:14;;;;;;;1.10;1.10;;;;;;;-9.38;100.00;98126.31;4970350;28;20077;-77
2023/03/08 00:08:42;;;;;;;1.40;1.30;;;;;;;-9.28;100.00;98132.34;4971894;28;20069;-77
2023/03/08 00:11:11;;;;;;;1.05;1.05;;;;;;;-9.24;100.00;98132.88;4990719;28;20046;-77
2023/03/08 00:13:38;;;;;;;0.98;0.98;;;;;;;-9.18;100.00;98137.56;4990731;28;20509;-77
2023/03/08 00:16:07;;;;;;;1.23;1.20;;;;;;;-9.12;100.00;98136.16;4990919;28;20453;-77
2023/03/08 00:18:35;;;;;;;1.20;1.20;;;;;;;-9.09;100.00;98141.09;4990521;28;20058;-77
2023/03/08 00:21:05;;;;;;;1.08;1.08;;;;;;;-9.10;100.00;98139.47;4990762;28;20509;-77
2023/03/08 00:23:32;;;;;;;1.27;1.20;;;;;;;-9.10;100.00;98135.03;4990971;28;20141;-77
2023/03/08 00:25:59;;;;;;;1.35;1.25;;;;;;;-9.12;100.00;98144.00;4990950;28;20054;-77
2023/03/08 00:28:26;;;;;;;1.35;1.25;;;;;;;-9.30;100.00;98139.47;4982902;28;20047;-77
2023/03/08 00:31:04;;;;;;;1.05;1.05;;;;;;;-9.41;100.00;98137.03;4971002;28;20055;-77
2023/03/08 00:33:32;;;;;;;1.10;1.10;;;;;;;-9.24;100.00;98138.94;4971681;28;20051;-77
2023/03/08 00:36:05;;;;;;;1.10;1.10;;;;;;;-9.10;100.00;98135.03;4970149;28;20069;-78
2023/03/08 00:38:34;;;;;;;1.15;1.15;;;;;;;-9.00;100.00;98142.88;4971223;28;20510;-77
2023/03/08 00:41:02;;;;;;;1.05;1.05;;;;;;;-8.99;100.00;98141.88;4971363;28;20054;-77
2023/03/08 00:43:31;;;;;;;1.45;1.35;;;;;;;-9.02;100.00;98148.22;4975941;28;20073;-76
2023/03/08 00:46:02;;;;;;;1.05;1.05;;;;;;;-9.08;100.00;98138.34;4989666;28;20074;-76
2023/03/08 00:48:29;;;;;;;1.27;1.20;;;;;;;-9.11;100.00;98146.47;4990661;28;20061;-76
2023/03/08 00:50:56;;;;;;;1.40;1.30;;;;;;;-9.14;100.00;98141.50;4988989;28;20564;-76
2023/03/08 00:53:23;;;;;;;1.27;1.20;;;;;;;-9.20;100.00;98140.28;4989395;28;20038;-77
2023/03/08 00:55:55;;;;;;;1.40;1.30;;;;;;;-9.24;100.00;98133.72;4990272;28;20547;-76
2023/03/08 00:58:26;;;;;;;1.40;1.30;;;;;;;-9.29;100.00;98133.31;4973311;28;20047;-77
2023/03/08 01:00:53;;;;;;;1.42;1.33;;;;;;;-9.26;100.00;98135.63;4989056;28;20050;-76
2023/03/08 01:03:21;;;;;;;1.27;1.20;;;;;;;-9.17;100.00;98134.78;4990561;28;20501;-76
2023/03/08 01:05:51;;;;;;;1.40;1.30;;;;;;;-9.11;100.00;98133.41;4990422;28;20057;-77
2023/03/08 01:08:19;;;;;;;1.05;1.05;;;;;;;-9.01;100.00;98138.63;4989116;28;20055;-77
2023/03/08 01:10:57;;;;;;;1.10;1.10;;;;;;;-8.94;100.00;98129.22;4989847;28;20050;-78
2023/03/08 01:13:32;;;;;;;1.10;1.10;;;;;;;-8.95;100.00;98125.78;4994225;28;20525;-77
2023/03/08 01:16:00;;;;;;;1.30;1.20;;;;;;;-8.94;100.00;98123.97;4994496;28;20054;-77
2023/03/08 01:18:28;;;;;;;1.25;1.15;;;;;;;-8.96;100.00;98128.56;4994111;28;20050;-76
2023/03/08 01:21:01;;;;;;;1.33;1.23;;;;;;;-8.97;100.00;98119.88;4992459;28;20082;-76
2023/03/08 01:23:29;;;;;;;1.90;1.70;;;;;;;-8.97;100.00;98117.25;4994107;28;20058;-76
2023/03/08 01:26:01;;;;;;;1.60;1.50;;;;;;;-8.96;100.00;98125.94;4975764;28;20042;-77
2023/03/08 01:28:28;;;;;;;1.23;1.13;;;;;;;-8.95;100.00;98122.34;4974510;28;20042;-77
2023/03/08 01:31:04;;;;;;;1.40;1.30;;;;;;;-8.92;100.00;98122.06;4973143;28;20058;-76
2023/03/08 01:33:33;;;;;;;1.40;1.30;;;;;;;-8.92;100.00;98116.81;4974500;28;20078;-77
2023/03/08 01:36:05;;;;;;;1.40;1.30;;;;;;;-8.94;100.00;98121.38;4973160;28;20050;-77
2023/03/08 01:38:32;;;;;;;1.35;1.25;;;;;;;-9.01;100.00;98120.31;4974092;28;20530;-77
2023/03/08 01:41:02;;;;;;;1.02;1.02;;;;;;;-9.16;100.00;98119.94;4973057;28;20061;-77
2023/03/08 01:43:37;;;;;;;1.02;1.02;;;;;;;-9.36;100.00;98113.94;4974080;28;20105;-76
2023/03/08 01:46:09;;;;;;;1.30;1.20;;;;;;;-9.39;100.00;98119.44;4973282;28;20445;-77
2023/03/08 01:49:01;;;;;;;1.30;1.20;;;;;;;-9.46;100.00;98115.72;4988896;28;20061;-76
2023/03/08 01:51:40;;;;;;;1.60;1.50;;;;;;;-9.54;100.00;98110.34;4972700;28;20059;-77
2023/03/08 01:54:14;;;;;;;2.03;1.77;;;;;;;-9.54;100.00;98110.34;4974125;28;20050;-77
2023/03/08 01:56:43;;;;;;;1.10;1.10;;;;;;;-9.58;100.00;98114.22;4973617;28;20053;-77
2023/03/08 01:59:15;;;;;;;1.30;1.20;;;;;;;-9.65;100.00;98113.94;4988801;28;20540;-77
2023/03/08 02:01:42;;;;;;;1.40;1.30;;;;;;;-9.76;99.66;98120.16;4973535;28;20505;-76
2023/03/08 02:04:10;;;;;;;1.60;1.50;;;;;;;-9.91;99.52;98119.72;4972639;28;20057;-77
2023/03/08 02:06:40;;;;;;;1.60;1.50;;;;;;;-10.00;99.74;98127.53;4973401;28;20061;-76
2023/03/08 02:09:10;;;;;;;1.30;1.20;;;;;;;-10.01;99.78;98136.34;4960980;28;20053;-75
2023/03/08 02:11:39;;;;;;;1.60;1.50;;;;;;;-10.05;99.69;98130.56;4991822;28;20061;-76
2023/03/08 02:14:06;;;;;;;1.70;1.50;;;;;;;-10.13;99.43;98130.41;4976042;28;20064;-76
2023/03/08 02:16:36;;;;;;;1.70;1.60;;;;;;;-10.25;99.19;98133.16;4991819;28;20686;-77
2023/03/08 02:19:28;;;;;;;2.03;1.80;;;;;;;-10.18;99.24;98128.22;4991854;28;20108;-77
2023/03/08 02:21:58;;;;;;;1.42;1.33;;;;;;;-10.20;99.00;98126.69;4974975;28;20066;-76
2023/03/08 02:24:25;;;;;;;1.60;1.50;;;;;;;-10.21;99.12;98128.47;4975114;28;20133;-77
2023/03/08 02:27:00;;;;;;;1.70;1.60;;;;;;;-10.15;99.03;98127.97;4992840;28;20149;-76
2023/03/08 02:29:27;;;;;;;1.70;1.60;;;;;;;-10.18;98.67;98132.59;4992755;28;20561;-77
2023/03/08 02:31:54;;;;;;;1.40;1.30;;;;;;;-10.26;98.38;98128.88;4991105;28;20091;-76
2023/03/08 02:34:21;;;;;;;1.88;1.77;;;;;;;-10.33;98.37;98135.66;4992842;28;20061;-76
2023/03/08 02:36:48;;;;;;;1.88;1.70;;;;;;;-10.36;98.07;98135.91;4992837;28;20058;-77
2023/03/08 02:39:16;;;;;;;2.00;1.80;;;;;;;-10.45;98.01;98141.94;4992839;28;20053;-76
2023/03/08 02:41:46;;;;;;;1.80;1.70;;;;;;;-10.51;98.22;98142.44;4974734;28;20146;-77
2023/03/08 02:44:13;;;;;;;2.00;1.80;;;;;;;-10.48;98.09;98143.03;4992660;28;20390;-76
2023/03/08 02:46:40;;;;;;;1.63;1.52;;;;;;;-10.51;98.22;98140.66;4992352;28;20054;-75
2023/03/08 02:49:07;;;;;;;2.00;1.80;;;;;;;-10.50;98.42;98147.53;4992591;28;20397;-76
2023/03/08 02:51:36;;;;;;;2.22;2.03;;;;;;;-10.40;98.45;98144.97;4992018;28;20101;-76
2023/03/08 02:54:04;;;;;;;1.75;1.60;;;;;;;-10.38;98.42;98150.88;4992561;28;20050;-77
2023/03/08 02:56:31;;;;;;;2.03;1.83;;;;;;;-10.33;98.41;98142.63;4990901;28;20137;-75
2023/03/08 02:58:58;;;;;;;1.42;1.33;;;;;;;-10.39;98.39;98157.03;4992171;28;20460;-78
2023/03/08 03:01:26;;;;;;;1.60;1.50;;;;;;;-10.43;98.17;98153.06;4990777;28;20050;-76
2023/03/08 03:03:54;;;;;;;1.60;1.50;;;;;;;-10.47;98.21;98160.31;4990682;28;20046;-76
2023/03/08 03:06:21;;;;;;;1.55;1.45;;;;;;;-10.51;98.09;98155.47;4990774;28;20070;-77
2023/03/08 03:08:52;;;;;;;1.88;1.75;;;;;;;-10.51;98.17;98153.69;4986562;28;20455;-78
2023/03/08 03:11:21;;;;;;;1.60;1.50;;;;;;;-10.55;98.10;98157.53;4971369;28;20137;-77
2023/03/08 03:13:57;;;;;;;1.40;1.30;;;;;;;-10.49;98.29;98156.19;4971223;28;20043;-78
2023/03/08 03:16:29;;;;;;;1.60;1.50;;;;;;;-10.56;98.04;98160.28;4973204;28;20071;-77
2023/03/08 03:18:56;;;;;;;1.60;1.50;;;;;;;-10.63;98.13;98157.38;4990830;28;20055;-77
2023/03/08 03:21:23;;;;;;;1.65;1.55;;;;;;;-10.63;98.03;98164.34;4990371;28;20133;-77
2023/03/08 03:23:54;;;;;;;1.70;1.60;;;;;;;-10.62;98.28;98161.63;4991502;28;20089;-78
2023/03/08 03:26:27;;;;;;;1.80;1.70;;;;;;;-10.61;98.45;98154.63;4990482;28;20060;-77
2023/03/08 03:28:58;;;;;;;2.20;2.00;;;;;;;-10.57;98.61;98159.47;4989926;28;20046;-77
2023/03/08 03:31:30;;;;;;;1.75;1.65;;;;;;;-10.51;98.74;98161.53;4990218;28;20081;-76
2023/03/08 03:33:57;;;;;;;1.80;1.70;;;;;;;-10.41;98.67;98145.09;4989614;28;20138;-77
2023/03/08 03:36:26;;;;;;;1.70;1.60;;;;;;;-10.39;98.67;98144.00;4990912;28;20078;-77
2023/03/08 03:38:54;;;;;;;2.03;1.83;;;;;;;-10.32;99.02;98145.13;4989676;28;20046;-76
2023/03/08 03:41:24;;;;;;;2.00;1.80;;;;;;;-10.22;99.03;98142.50;4990495;28;20046;-78
2023/03/08 03:44:00;;;;;;;1.55;1.45;;;;;;;-10.16;98.90;98149.78;4990041;28;20046;-77
2023/03/08 03:46:30;;;;;;;1.70;1.60;;;;;;;-10.08;99.15;98146.50;4991249;28;20054;-77
2023/03/08 03:48:58;;;;;;;2.03;1.80;;;;;;;-10.04;99.15;98140.06;4989792;28;20072;-77
2023/03/08 03:51:31;;;;;;;1.65;1.55;;;;;;;-9.98;99.26;98139.50;4989824;28;20058;-76
2023/03/08 03:54:13;;;;;;;1.70;1.60;;;;;;;-9.88;99.19;98144.72;4990149;28;20138;-77
2023/03/08 03:56:43;;;;;;;1.58;1.48;;;;;;;-9.86;99.27;98148.84;4989839;28;20133;-76
2023/03/08 03:59:10;;;;;;;1.45;1.35;;;;;;;-9.83;99.36;98152.97;4989936;28;20046;-77
2023/03/08 04:01:37;;;;;;;2.00;1.80;;;;;;;-9.83;98.91;98145.16;4989514;28;20045;-77
2023/03/08 04:04:22;;;;;;;1.48;1.38;;;;;;;-9.87;99.14;98144.63;4990337;28;20101;-77
2023/03/08 04:06:51;;;;;;;1.42;1.33;;;;;;;-9.84;99.48;98146.94;4989123;28;20145;-77
2023/03/08 04:09:22;;;;;;;1.40;1.30;;;;;;;-9.73;99.53;98145.16;4991116;28;20054;-77
2023/03/08 04:12:01;;;;;;;1.60;1.50;;;;;;;-9.68;99.35;98150.78;4989176;28;20517;-77
2023/03/08 04:14:29;;;;;;;1.52;1.42;;;;;;;-9.63;99.21;98157.25;4989743;28;20054;-77
2023/03/08 04:16:56;;;;;;;1.50;1.40;;;;;;;-9.60;99.03;98156.97;4973711;28;20153;-77
2023/03/08 04:19:29;;;;;;;1.40;1.30;;;;;;;-9.52;99.24;98164.16;4989568;28;20098;-77
2023/03/08 04:21:58;;;;;;;1.73;1.63;;;;;;;-9.47;99.15;98158.47;4990896;28;20073;-78
2023/03/08 04:24:31;;;;;;;1.15;1.10;;;;;;;-9.41;99.19;98168.41;4989616;28;20054;-76
2023/03/08 04:27:04;;;;;;;1.70;1.60;;;;;;;-9.34;99.02;98173.88;4989581;28;20057;-78
2023/03/08 04:29:31;;;;;;;1.60;1.50;;;;;;;-9.32;99.10;98162.31;4972403;28;20054;-76
2023/03/08 04:31:59;;;;;;;1.13;1.13;;;;;;;-9.31;99.42;98178.84;4989278;28;20536;-77
2023/03/08 04:34:35;;;;;;;1.60;1.50;;;;;;;-9.26;99.50;98189.69;4989095;28;20057;-76
2023/03/08 04:37:04;;;;;;;1.40;1.30;;;;;;;-9.28;99.46;98176.75;4989486;28;20142;-76
2023/03/08 04:39:34;;;;;;;1.35;1.25;;;;;;;-9.22;99.61;98176.19;4989298;28;20042;-78
2023/03/08 04:42:01;;;;;;;1.38;1.27;;;;;;;-9.21;99.64;98190.94;4973190;28;20552;-78
2023/03/08 04:44:31;;;;;;;1.48;1.38;;;;;;;-9.14;99.97;98192.97;4989369;28;20513;-77
2023/03/08 04:46:58;;;;;;;1.60;1.50;;;;;;;-9.09;99.84;98190.75;4991021;28;20038;-78
2023/03/08 04:49:35;;;;;;;1.10;1.10;;;;;;;-9.07;99.82;98194.06;4996671;28;20058;-76
2023/03/08 04:52:03;;;;;;;1.35;1.25;;;;;;;-9.08;99.78;98202.88;4654241;28;10000097;-78
2023/03/08 04:54:32;;;;;;;0.98;0.98;;;;;;;-9.05;100.00;98197.38;4978479;28;20818;-78
2023/03/08 04:57:14;;;;;;;1.30;1.20;;;;;;;-8.91;99.86;98196.09;4994981;28;20529;-77
2023/03/08 04:59:43;;;;;;;1.40;1.30;;;;;;;-8.87;99.86;98189.63;4999986;28;20084;-78
2023/03/08 05:02:11;;;;;;;1.30;1.20;;;;;;;-8.83;99.66;98191.00;5000328;28;20068;-78
2023/03/08 05:04:38;;;;;;;1.30;1.20;;;;;;;-8.79;99.69;98187.94;4996146;28;20101;-78
2023/03/08 05:07:05;;;;;;;1.10;1.10;;;;;;;-8.64;99.64;98188.31;4999847;28;20406;-78
2023/03/08 05:09:35;;;;;;;1.08;1.08;;;;;;;-8.56;99.78;98183.22;4992408;28;20245;-78
2023/03/08 05:12:03;;;;;;;1.10;1.10;;;;;;;-8.46;99.80;98180.53;4993783;28;20050;-78
2023/03/08 05:14:50;;;;;;;1.15;1.15;;;;;;;-8.32;99.68;98179.22;4991593;28;20596;-79
2023/03/08 05:17:19;;;;;;;1.10;1.10;;;;;;;-8.23;99.60;98164.41;4981823;28;20078;-79
2023/03/08 05:19:46;;;;;;;1.10;1.10;;;;;;;-8.12;99.57;98177.31;4990237;28;20058;-77
2023/03/08 05:22:18;;;;;;;1.30;1.20;;;;;;;-8.04;99.50;98172.16;4986476;28;20047;-79
2023/03/08 05:24:49;;;;;;;1.00;1.00;;;;;;;-7.92;99.33;98160.53;4965363;28;20050;-79
2023/03/08 05:27:17;;;;;;;1.30;1.20;;;;;;;-7.86;99.28;98159.91;4983222;28;20078;-77
2023/03/08 05:29:45;;;;;;;1.23;1.20;;;;;;;-7.74;99.15;98165.78;4987570;28;20054;-78
2023/03/08 05:32:13;;;;;;;1.13;1.13;;;;;;;-7.67;98.97;98158.97;4988903;28;20417;-78
2023/03/08 05:34:40;;;;;;;1.00;1.00;;;;;;;-7.65;98.87;98159.63;4983906;28;20057;-78
2023/03/08 05:37:11;;;;;;;1.10;1.10;;;;;;;-7.58;98.80;98159.84;4994532;28;20449;-78
2023/03/08 05:39:44;;;;;;;0.90;0.90;;;;;;;-7.47;98.64;98166.66;4995206;28;20489;-78
2023/03/08 05:42:16;;;;;;;0.95;0.95;;;;;;;-7.30;98.66;98165.00;4961506;28;20045;-79
2023/03/08 05:44:45;;;;;;;1.10;1.10;;;;;;;-7.20;98.29;98168.34;5000290;28;20424;-78
2023/03/08 05:47:17;;;;;;;0.90;0.90;;;;;;;-7.11;98.00;98166.63;4997820;28;20049;-77
2023/03/08 05:49:44;;;;;;;1.08;1.08;;;;;;;-6.99;97.96;98162.75;4976187;28;20789;-79
2023/03/08 05:52:13;;;;;;;0.80;0.80;;;;;;;-6.93;97.56;98171.84;4989488;28;20531;-78
2023/03/08 05:54:40;;;;;;;1.05;1.05;;;;;;;-6.95;96.79;98171.16;5009107;28;20050;-80
2023/03/08 05:57:13;;;;;;;1.00;1.00;;;;;;;-6.88;96.92;98170.41;4986353;28;20053;-78
2023/03/08 05:59:43;;;;;;;1.10;1.10;;;;;;;-6.86;96.43;98164.97;5004503;28;20053;-77
2023/03/08 06:02:15;;;;;;;1.00;1.00;;;;;;;-6.88;95.86;98172.22;5007952;28;20050;-78
2023/03/08 06:04:49;;;;;;;1.00;1.00;;;;;;;-6.88;95.57;98169.59;5007447;28;20744;-79
2023/03/08 06:07:20;;;;;;;0.95;0.95;;;;;;;-6.82;95.17;98156.66;4978463;28;20146;-78
2023/03/08 06:09:54;;;;;;;1.00;1.00;;;;;;;-6.76;94.84;98168.31;4978748;28;20060;-78
2023/03/08 06:12:22;;;;;;;0.98;0.98;;;;;;;-6.78;94.16;98167.69;4989682;28;20057;-79
2023/03/08 06:14:56;;;;;;;1.00;1.00;;;;;;;-6.74;93.80;98169.00;4991182;28;20113;-80
2023/03/08 06:17:28;;;;;;;1.40;1.30;;;;;;;-6.74;93.67;98161.13;4964650;28;20055;-79
2023/03/08 06:19:57;;;;;;;0.90;0.90;;;;;;;-6.65;93.47;98162.81;4992492;28;20149;-78
2023/03/08 06:22:24;;;;;;;0.90;0.90;;;;;;;-6.55;93.54;98155.66;4972153;28;20061;-78
2023/03/08 06:24:55;;;;;;;0.95;0.95;;;;;;;-6.33;93.39;98154.28;4972512;28;20399;-78
2023/03/08 06:27:29;;;;;;;1.00;1.00;;;;;;;-6.31;92.68;98156.72;4987204;28;20053;-78
2023/03/08 06:30:00;;;;;;;1.00;1.00;;;;;;;-6.24;92.40;98144.63;4991567;28;20054;-79
2023/03/08 06:32:30;;;;;;;0.90;0.90;;;;;;;-6.05;92.10;98129.56;4991488;28;20061;-79
2023/03/08 06:34:59;;;;;;;1.08;1.08;;;;;;;-5.84;91.88;98129.94;4993501;28;20049;-78
2023/03/08 06:37:34;;;;;;;0.90;0.90;;;;;;;-5.76;91.24;98119.41;4992187;28;20050;-79
2023/03/08 06:40:04;;;;;;;;;;;;;;;-5.76;90.43;98111.53;4975750;28;20166;-78
2023/03/08 06:42:33;;;;;;;0.90;0.90;;;;;;;-5.62;89.67;98111.88;4985583;28;20373;-79
2023/03/08 06:45:14;;;;;;;1.05;1.05;;;;;;;-5.49;88.95;98106.97;4989984;28;20468;-79
2023/03/08 06:47:41;;;;;;;0.95;0.95;;;;;;;-5.51;88.04;98083.44;4991366;28;20109;-80
2023/03/08 06:50:10;;;;;;;1.00;1.00;;;;;;;-5.39;87.75;98091.84;4990917;28;20046;-79
2023/03/08 06:52:40;;;;;;;0.90;0.90;;;;;;;-5.34;86.79;98092.16;4988679;28;20112;-79
2023/03/08 06:55:08;;;;;;;0.90;0.90;;;;;;;-5.20;86.93;98095.91;4987010;28;20154;-78
2023/03/08 06:57:35;;;;;;;0.90;0.90;;;;;;;-5.18;86.48;98093.13;4989716;28;20054;-80
2023/03/08 07:00:05;;;;;;;0.93;0.93;;;;;;;-5.23;86.73;98091.00;4990668;28;20425;-80
2023/03/08 07:02:38;;;;;;;1.10;1.10;;;;;;;-5.15;86.19;98082.28;4990299;28;20065;-80
2023/03/08 07:05:06;;;;;;;0.80;0.80;;;;;;;-5.13;85.63;98077.66;4969427;28;20062;-83
2023/03/08 07:07:34;;;;;;;0.95;0.95;;;;;;;-4.93;85.40;98073.69;4976107;28;20058;-82
2023/03/08 07:10:02;;;;;;;0.93;0.93;;;;;;;-4.94;84.54;98079.91;4988719;28;20057;-82
2023/03/08 07:12:31;;;;;;;0.88;0.88;;;;;;;-4.94;84.27;98058.84;4994344;28;20584;-81
2023/03/08 07:14:58;;;;;;;1.00;1.00;;;;;;;-4.84;84.47;98059.47;4995642;28;20057;-81
2023/03/08 07:17:25;;;;;;;0.90;0.90;;;;;;;-4.56;84.41;98048.53;4987539;28;20050;-81
2023/03/08 07:19:52;;;;;;;0.95;0.95;;;;;;;-4.39;83.50;98055.34;4989266;28;20053;-81
2023/03/08 07:22:19;;;;;;;0.95;0.95;;;;;;;-4.28;83.11;98053.31;4997983;28;20074;-80
2023/03/08 07:24:47;;;;;;;1.05;1.05;;;;;;;-4.25;82.36;98039.81;4974945;28;20113;-80
2023/03/08 07:27:15;;;;;;;0.90;0.90;;;;;;;-4.57;81.74;98055.59;4973010;28;20050;-82
2023/03/08 07:29:42;;;;;;;0.90;0.90;;;;;;;-4.70;81.72;98062.41;4993309;28;20046;-83
2023/03/08 07:32:11;;;;;;;0.82;0.82;;;;;;;-4.63;81.91;98066.84;4996810;28;20110;-80
2023/03/08 07:34:38;;;;;;;1.00;1.00;;;;;;;-4.52;82.23;98063.00;4989045;28;20421;-82
2023/03/08 07:37:13;;;;;;;0.90;0.90;;;;;;;-4.44;81.78;98068.22;4989322;28;20050;-79
2023/03/08 07:39:40;;;;;;;;;;;;;;;-4.44;81.67;98057.69;4991323;28;20042;-81
2023/03/08 07:42:10;;;;;;;0.90;0.90;;;;;;;-4.20;81.59;98055.94;4653547;28;9999841;-83
2023/03/08 07:44:38;;;;;;;1.00;1.00;;;;;;;-4.21;81.09;98059.53;4997611;28;20689;-81
2023/03/08 07:47:06;;;;;;;1.00;1.00;;;;;;;-4.24;80.38;98057.25;5006854;28;20079;-80
2023/03/08 07:49:33;;;;;;;1.13;1.13;;;;;;;-4.09;80.24;98049.44;4992126;28;20165;-81
2023/03/08 07:52:03;;;;;;;0.90;0.90;;;;;;;-4.18;79.96;98049.50;4987305;28;20058;-81
2023/03/08 07:54:30;;;;;;;1.10;1.10;;;;;;;-4.20;79.87;98055.94;4977587;28;20050;-81
2023/03/08 07:56:58;;;;;;;0.98;0.98;;;;;;;-4.20;79.81;98063.84;4990177;28;20502;-79
2023/03/08 07:59:25;;;;;;;0.93;0.93;;;;;;;-4.15;79.70;98061.50;4990471;28;20075;-79
2023/03/08 08:01:52;;;;;;;1.00;1.00;;;;;;;-4.01;79.23;98060.72;4989110;28;20085;-80
2023/03/08 08:04:21;;;;;;;0.98;0.98;;;;;;;-3.85;78.69;98035.25;4989158;28;20163;-79
2023/03/08 08:06:48;;;;;;;0.93;0.93;;;;;;;-3.71;78.47;98045.03;4985110;28;20054;-83
2023/03/08 08:09:16;;;;;;;1.00;1.00;;;;;;;-3.72;78.07;98044.22;4988480;28;20444;-80
2023/03/08 08:11:43;;;;;;;0.82;0.82;;;;;;;-3.53;78.01;98040.28;4988792;28;20101;-80
2023/03/08 08:14:10;;;;;;;0.80;0.80;;;;;;;-3.45;77.19;98041.19;4993616;28;20046;-80
2023/03/08 08:16:37;;;;;;;0.93;0.93;;;;;;;-3.52;77.12;98034.00;4987064;28;20054;-81
2023/03/08 08:19:05;;;;;;;1.10;1.10;;;;;;;-3.41;77.34;98026.66;4990026;28;20096;-80
2023/03/08 08:21:32;;;;;;;1.10;1.10;;;;;;;-3.33;76.90;98031.84;4988911;28;20497;-82
2023/03/08 08:24:00;;;;;;;0.90;0.90;;;;;;;-3.34;76.46;98041.59;4990474;28;20070;-82
2023/03/08 08:26:27;;;;;;;0.90;0.90;;;;;;;-3.43;76.42;98039.22;4995015;28;20050;-82
2023/03/08 08:28:54;;;;;;;1.00;1.00;;;;;;;-3.62;75.68;98037.88;4995762;28;20078;-82
2023/03/08 08:31:29;;;;;;;0.95;0.95;;;;;;;-3.41;76.51;98018.75;5011349;28;20060;-82
2023/03/08 08:33:58;;;;;;;1.10;1.10;;;;;;;-3.24;75.43;98027.31;5005443;28;20058;-82
2023/03/08 08:36:26;;;;;;;1.02;1.02;;;;;;;-3.08;75.13;98020.06;4995151;28;20078;-81
2023/03/08 08:38:53;;;;;;;0.80;0.80;;;;;;;-2.99;74.66;98025.25;4990375;28;20057;-82
2023/03/08 08:41:23;;;;;;;0.93;0.93;;;;;;;-2.73;74.50;98022.97;4990642;28;20398;-82
2023/03/08 08:43:51;;;;;;;1.10;1.10;;;;;;;-2.63;74.08;98022.69;4995105;28;20042;-82
2023/03/08 08:46:21;;;;;;;1.05;1.05;;;;;;;-2.59;73.75;98012.56;5006558;28;20519;-81
2023/03/08 08:48:48;;;;;;;0.73;0.73;;;;;;;-2.68;73.68;98009.22;5008598;28;20417;-80
2023/03/08 08:51:15;;;;;;;0.90;0.90;;;;;;;-2.76;73.63;98002.22;4993318;28;20046;-82
2023/03/08 08:53:48;;;;;;;1.08;1.08;;;;;;;-2.83;73.62;98006.59;4980506;28;20174;-81
2023/03/08 08:56:17;;;;;;;0.80;0.80;;;;;;;-2.89;73.61;97999.38;4976695;28;20422;-83
2023/03/08 08:59:01;;;;;;;1.13;1.13;;;;;;;-2.99;73.38;97985.63;4988809;28;20189;-80
2023/03/08 09:01:31;;;;;;;1.00;1.00;;;;;;;-3.01;73.87;98000.84;4991815;28;20049;-81
2023/03/08 09:03:58;;;;;;;1.10;1.10;;;;;;;-2.93;73.58;97995.47;4990642;28;20149;-82
2023/03/08 09:06:27;;;;;;;1.00;1.00;;;;;;;-2.88;73.20;97993.13;4993455;28;20074;-80
2023/03/08 09:08:56;;;;;;;1.00;1.00;;;;;;;-2.81;73.22;97987.91;4987410;28;20085;-82
2023/03/08 09:11:24;;;;;;;1.05;1.05;;;;;;;-2.55;73.13;97979.50;4995644;28;20116;-82
2023/03/08 09:13:52;;;;;;;1.00;1.00;;;;;;;-2.33;72.82;97980.31;5007325;28;20096;-83
2023/03/08 09:16:22;;;;;;;1.25;1.20;;;;;;;-2.30;72.66;97972.84;4989571;28;20141;-79
2023/03/08 09:18:50;;;;;;;1.20;1.20;;;;;;;-2.04;72.08;97969.66;4981717;28;20055;-81
2023/03/08 09:21:17;;;;;;;1.23;1.20;;;;;;;-1.79;71.27;97971.91;4979269;28;20062;-82
2023/03/08 09:23:45;;;;;;;0.90;0.90;;;;;;;-1.81;70.01;97942.19;4980149;28;20110;-82
2023/03/08 09:26:12;;;;;;;1.27;1.20;;;;;;;-1.64;69.78;97942.72;4980840;28;20523;-81
2023/03/08 09:28:39;;;;;;;1.42;1.33;;;;;;;-1.25;69.24;97920.16;4979299;28;20057;-82
2023/03/08 09:31:13;;;;;;;1.38;1.27;;;;;;;-1.33;67.86;97927.25;4980087;28;20501;-82
2023/03/08 09:33:50;;;;;;;1.40;1.30;;;;;;;-1.53;67.08;97935.06;4981486;28;20050;-83
2023/03/08 09:36:18;;;;;;;1.40;1.30;;;;;;;-1.34;67.06;97916.88;4983350;28;20093;-83
2023/03/08 09:38:47;;;;;;;1.45;1.35;;;;;;;-0.72;66.81;97912.47;4980874;28;20644;-83
2023/03/08 09:41:35;;;;;;;1.50;1.40;;;;;;;-0.56;66.06;97917.38;4981951;28;20134;-81
2023/03/08 09:44:16;;;;;;;1.40;1.30;;;;;;;-0.39;64.81;97907.22;4983891;28;20153;-83
2023/03/08 09:46:54;;;;;;;1.08;1.08;;;;;;;-0.42;64.57;97897.03;4985272;28;20058;-81
2023/03/08 09:49:26;;;;;;;1.02;1.02;;;;;;;-0.36;64.54;97896.22;4982292;28;20062;-83
2023/03/08 09:52:19;;;;;;;1.00;1.00;;;;;;;-0.50;65.32;97889.28;4983385;28;20103;-83
2023/03/08 09:54:46;;;;;;;1.10;1.10;;;;;;;-0.80;65.44;97888.78;4979910;28;20051;-82
2023/03/08 09:57:17;;;;;;;1.02;1.02;;;;;;;-0.99;65.52;97880.56;4994627;28;20062;-84
2023/03/08 09:59:56;;;;;;;1.15;1.15;;;;;;;-0.88;66.22;97866.75;4992248;28;20046;-82
2023/03/08 10:02:47;;;;;;;1.00;1.00;;;;;;;-0.88;65.67;97869.41;4989880;28;20054;-82
2023/03/08 10:05:17;;;;;;;1.10;1.10;;;;;;;-0.76;66.31;97855.56;4982375;28;20499;-82
2023/03/08 10:07:47;;;;;;;1.10;1.10;;;;;;;-0.84;66.01;97855.75;4982046;28;20090;-82
2023/03/08 10:10:32;;;;;;;1.10;1.10;;;;;;;-1.02;66.13;97846.53;4983753;28;20101;-79
2023/03/08 10:13:16;;;;;;;1.08;1.08;;;;;;;-1.15;66.15;97851.78;4989346;28;20480;-81
2023/03/08 10:15:47;;;;;;;1.15;1.15;;;;;;;-1.44;66.37;97829.03;4989894;28;20097;-79
2023/03/08 10:18:22;;;;;;;1.10;1.10;;;;;;;-1.55;67.11;97860.34;4973013;28;20066;-80
2023/03/08 10:20:50;;;;;;;1.25;1.17;;;;;;;-1.66;67.30;97850.31;4988645;28;20061;-80
2023/03/08 10:23:20;;;;;;;1.40;1.30;;;;;;;-1.71;67.49;97843.97;4991238;28;20050;-80
2023/03/08 10:25:49;;;;;;;1.00;1.00;;;;;;;-1.61;67.71;97828.56;4987478;28;20073;-80
2023/03/08 10:28:21;;;;;;;1.08;1.08;;;;;;;-1.44;67.02;97815.81;4982443;28;20054;-80
2023/03/08 10:30:52;;;;;;;1.30;1.20;;;;;;;-1.40;66.94;97823.16;4980694;28;20081;-82
2023/03/08 10:33:23;;;;;;;1.00;1.00;;;;;;;-1.34;66.54;97821.59;4985641;28;20057;-81
2023/03/08 10:36:01;;;;;;;1.30;1.20;;;;;;;-1.03;66.45;97812.31;4985413;28;20056;-79
2023/03/08 10:38:30;;;;;;;1.10;1.10;;;;;;;-0.74;65.58;97829.69;4982465;28;20058;-79
2023/03/08 10:41:11;;;;;;;1.30;1.20;;;;;;;-0.73;65.16;97807.50;4992815;28;20077;-80
2023/03/08 10:43:50;;;;;;;1.13;1.13;;;;;;;-0.63;64.87;97804.44;4990465;28;20053;-80
2023/03/08 10:46:27;;;;;;;0.98;0.98;;;;;;;-0.55;64.57;97805.06;4982992;28;20046;-80
2023/03/08 10:48:54;;;;;;;1.00;1.00;;;;;;;-0.30;64.53;97807.13;4981511;28;20142;-79
2023/03/08 10:51:27;;;;;;;1.00;1.00;;;;;;;-0.18;63.58;97776.28;4981485;28;20077;-78
2023/03/08 10:53:56;;;;;;;1.25;1.20;;;;;;;-0.34;63.19;97796.09;4977641;28;20077;-80
2023/03/08 10:56:37;;;;;;;1.10;1.10;;;;;;;-0.50;63.57;97773.47;4983711;28;20053;-79
2023/03/08 10:59:05;;;;;;;1.23;1.17;;;;;;;-0.39;63.85;97776.53;4992754;28;20050;-80
2023/03/08 11:01:50;;;;;;;1.00;1.00;;;;;;;-0.25;63.06;97767.56;4984403;28;20043;-80
2023/03/08 11:04:19;;;;;;;1.30;1.20;;;;;;;-0.38;62.85;97759.59;4968912;28;20054;-79
2023/03/08 11:06:46;;;;;;;1.30;1.20;;;;;;;-0.23;63.10;97757.53;4982665;28;20065;-78
2023/03/08 11:09:31;;;;;;;1.10;1.10;;;;;;;-0.10;62.86;97756.69;4979105;28;20505;-79
2023/03/08 11:11:59;;;;;;;1.40;1.30;;;;;;;-0.07;62.58;97732.44;4981890;28;20146;-81
2023/03/08 11:14:28;;;;;;;1.20;1.20;;;;;;;-0.08;62.36;97741.41;4977929;28;20054;-78
2023/03/08 11:17:09;;;;;;;1.40;1.30;;;;;;;0.21;62.03;97732.16;4981914;28;20563;-78
2023/03/08 11:20:09;;;;;;;1.13;1.13;;;;;;;0.60;61.15;97711.78;4980416;28;20453;-82
2023/03/08 11:23:17;;;;;;;1.27;1.20;;;;;;;0.64;60.66;97716.44;4975517;28;20145;-81
2023/03/08 11:25:46;;;;;;;1.20;1.20;;;;;;;0.69;60.36;97721.13;4951076;28;20052;-80
2023/03/08 11:28:28;;;;;;;1.02;1.02;;;;;;;0.49;60.21;97701.84;4950387;28;20071;-80
2023/03/08 11:31:13;;;;;;;1.02;1.02;;;;;;;0.25;61.55;97688.25;4951007;28;20150;-80
2023/03/08 11:34:02;;;;;;;1.00;1.00;;;;;;;0.13;61.72;97711.97;4952783;28;20068;-80
2023/03/08 11:36:35;;;;;;;1.10;1.10;;;;;;;0.11;62.18;97694.66;4969510;28;20051;-80
2023/03/08 11:39:25;;;;;;;1.05;1.05;;;;;;;0.14;62.25;97689.72;4968578;28;20182;-80
2023/03/08 11:42:26;;;;;;;1.10;1.10;;;;;;;0.11;62.16;97690.16;4950184;29;20055;-79
2023/03/08 11:45:19;;;;;;;1.10;1.10;;;;;;;0.07;62.46;97686.28;4946722;28;20046;-81
2023/03/08 11:48:09;;;;;;;1.00;1.00;;;;;;;-0.16;62.34;97680.63;4969012;28;20051;-79
2023/03/08 11:50:48;;;;;;;1.23;1.20;;;;;;;-0.13;62.95;97686.31;4945083;28;20054;-80